Adaville, Iowa
Current Conditions -  °F | °C
As of 10:55 PM on Thursday 30 Oct 2014 (Local Time) from KLRJ Reporting Station
Overcast Overcast  
Wind Chill: 26°   Ceiling: 2500
Heat Index: 37°   Visibility: 10mi
Dew Point: 27°   Wind: 24mph
Humidity: 65%   Direction: 10°N
Pressure: 30.42"   Gusts: 36mph
Location:  42.7082°N, 96.485°W
Report Text: KLRJ 310355Z AUTO 01021G31KT 10SM OVC025 03/M03 A3042 RMK AO2
Loading
Personal Weather Stations






























Interactive Weather Map New forecast layout! Learn more

10-Day Weather Forecast

Advertisements
Track Severe Weather on mobile